Time;durP1;ratioP1;P1;durP2;ratioP2;P2;SDS_P1;SDS_P2;PMS_P1;PMS_P2;Temp;Humidity;BMP_temperature;BMP_pressure;BME280_temperature;BME280_humidity;BME280_pressure;Samples;Min_cycle;Max_cycle;Signal;HPM_P1;HPM_P2
2021/09/11 00:02:17;;;;;;;4.57;4.17;;;;;;;18.16;100.00;100389.25;5133235;27;20183;-73
2021/09/11 00:04:46;;;;;;;3.50;3.20;;;;;;;18.16;100.00;100370.72;5132462;27;20195;-73
2021/09/11 00:07:12;;;;;;;5.57;5.07;;;;;;;18.16;100.00;100387.28;5133094;27;20211;-73
2021/09/11 00:09:37;;;;;;;5.27;4.87;;;;;;;18.16;100.00;100395.59;5133149;27;20187;-73
2021/09/11 00:12:03;;;;;;;4.67;4.27;;;;;;;18.15;100.00;100399.53;5132891;27;20208;-73
2021/09/11 00:14:29;;;;;;;5.83;5.33;;;;;;;18.13;100.00;100407.38;5132705;27;20210;-73
2021/09/11 00:16:54;;;;;;;5.17;4.87;;;;;;;18.12;100.00;100408.56;5132818;27;20255;-73
2021/09/11 00:19:19;;;;;;;5.63;5.13;;;;;;;18.10;100.00;100402.59;5133000;27;20172;-73
2021/09/11 00:21:45;;;;;;;6.13;5.37;;;;;;;18.07;100.00;100422.66;5132863;27;20173;-73
2021/09/11 00:24:10;;;;;;;6.20;5.53;;;;;;;18.06;100.00;100421.06;5114198;27;20184;-73
2021/09/11 00:26:36;;;;;;;7.23;6.70;;;;;;;18.07;100.00;100422.66;5132836;27;20204;-74
2021/09/11 00:29:01;;;;;;;5.47;4.97;;;;;;;18.05;100.00;100424.97;5114354;27;20272;-74
2021/09/11 00:31:26;;;;;;;6.93;6.33;;;;;;;18.04;100.00;100424.19;5132552;27;20180;-73
2021/09/11 00:33:52;;;;;;;6.80;6.20;;;;;;;18.04;100.00;100423.38;5132217;27;20580;-73
2021/09/11 00:36:17;;;;;;;7.03;6.33;;;;;;;18.04;100.00;100423.38;5132474;27;20229;-73
2021/09/11 00:38:44;;;;;;;6.97;6.37;;;;;;;18.03;100.00;100436.41;5114084;27;20270;-73
2021/09/11 00:41:09;;;;;;;8.47;5.63;;;;;;;18.03;100.00;100441.94;5132257;27;20177;-73
2021/09/11 00:43:42;;;;;;;7.57;7.00;;;;;;;18.02;100.00;100448.63;5131929;27;20184;-73
2021/09/11 00:46:08;;;;;;;7.17;6.57;;;;;;;18.04;100.00;100428.91;5132490;27;20173;-73
2021/09/11 00:48:33;;;;;;;7.43;6.73;;;;;;;18.03;100.00;100430.06;5132493;27;20176;-73
2021/09/11 00:50:58;;;;;;;7.30;6.70;;;;;;;18.05;100.00;100441.56;5132325;27;20188;-73
2021/09/11 00:53:24;;;;;;;6.97;5.87;;;;;;;18.05;100.00;100442.38;5132081;27;20189;-74
2021/09/11 00:55:50;;;;;;;7.70;7.10;;;;;;;18.05;100.00;100447.09;5131898;27;20252;-73
2021/09/11 00:58:16;;;;;;;7.20;6.60;;;;;;;18.03;100.00;100450.22;5132353;27;20181;-73
2021/09/11 01:00:41;;;;;;;9.30;7.40;;;;;;;18.03;100.00;100457.72;5132210;27;20244;-73
2021/09/11 01:03:06;;;;;;;6.80;6.30;;;;;;;18.02;100.00;100462.44;5113928;27;20169;-73
2021/09/11 01:05:32;;;;;;;7.30;6.63;;;;;;;18.01;100.00;100477.44;5131234;27;20240;-73
2021/09/11 01:07:57;;;;;;;8.07;7.27;;;;;;;18.04;100.00;100473.94;5131914;27;20252;-73
2021/09/11 01:10:22;;;;;;;7.83;7.23;;;;;;;18.03;100.00;100471.53;5113494;27;20165;-73
2021/09/11 01:12:48;;;;;;;9.70;6.50;;;;;;;18.05;100.00;100492.13;5131889;27;20534;-73
2021/09/11 01:15:14;;;;;;;8.27;7.60;;;;;;;18.07;100.00;100489.00;5131909;27;20180;-73
2021/09/11 01:17:41;;;;;;;7.47;6.87;;;;;;;18.09;100.00;100487.50;5132165;27;20247;-74
2021/09/11 01:20:07;;;;;;;8.77;8.07;;;;;;;18.09;100.00;100501.34;5113399;27;20187;-73
2021/09/11 01:22:33;;;;;;;7.70;7.10;;;;;;;18.11;100.00;100453.97;5131979;27;20531;-74
2021/09/11 01:25:01;;;;;;;7.83;7.17;;;;;;;18.08;100.00;100460.19;5131462;27;20173;-73
2021/09/11 01:27:28;;;;;;;7.90;7.30;;;;;;;18.09;100.00;100481.19;5131855;27;20184;-74
2021/09/11 01:29:59;;;;;;;8.37;7.77;;;;;;;18.05;100.00;100474.75;5113084;27;20528;-74
2021/09/11 01:32:26;;;;;;;8.10;7.40;;;;;;;18.04;100.00;100481.44;5131988;27;20897;-73
2021/09/11 01:34:51;;;;;;;10.13;7.77;;;;;;;18.00;100.00;100495.19;5131112;27;20718;-73
2021/09/11 01:37:18;;;;;;;9.23;8.23;;;;;;;17.96;100.00;100486.03;5131710;27;20255;-74
2021/09/11 01:39:47;;;;;;;8.53;7.80;;;;;;;17.96;100.00;100499.84;5131929;27;20646;-74
2021/09/11 01:42:20;;;;;;;8.97;7.97;;;;;;;17.95;100.00;100497.44;5131445;27;20173;-73
2021/09/11 01:44:50;;;;;;;10.37;9.37;;;;;;;17.95;100.00;100508.50;5131237;27;20247;-73
2021/09/11 01:47:16;;;;;;;10.27;9.27;;;;;;;17.96;100.00;100518.41;5131410;27;20608;-73
2021/09/11 01:49:42;;;;;;;8.90;8.13;;;;;;;17.95;100.00;100527.84;5131407;28;20168;-74
2021/09/11 01:52:08;;;;;;;9.47;8.67;;;;;;;17.95;100.00;100525.88;5131860;28;20193;-73
2021/09/11 01:54:34;;;;;;;11.37;10.47;;;;;;;17.96;100.00;100529.47;5131715;27;20196;-74
2021/09/11 01:56:59;;;;;;;11.07;10.03;;;;;;;17.98;100.00;100469.88;5136033;27;20205;-74
2021/09/11 01:59:25;;;;;;;10.63;9.10;;;;;;;18.01;100.00;100455.31;5135532;27;20168;-74
2021/09/11 02:01:51;;;;;;;9.53;8.73;;;;;;;18.03;100.00;100454.97;5135573;27;20165;-73
2021/09/11 02:04:16;;;;;;;9.40;8.60;;;;;;;18.02;100.00;100481.00;5135074;27;20662;-74
2021/09/11 02:06:41;;;;;;;12.20;9.30;;;;;;;18.02;100.00;100472.72;5135569;27;20494;-74
2021/09/11 02:09:06;;;;;;;9.57;8.87;;;;;;;18.05;100.00;100471.97;5135520;27;20414;-74
2021/09/11 02:11:32;;;;;;;9.40;8.60;;;;;;;18.04;100.00;100484.22;5135323;27;20168;-73
2021/09/11 02:13:57;;;;;;;8.67;7.97;;;;;;;18.04;100.00;100487.78;5135495;27;20219;-74
2021/09/11 02:16:22;;;;;;;8.97;8.23;;;;;;;18.02;100.00;100495.63;5135347;27;20161;-73
2021/09/11 02:18:48;;;;;;;9.93;9.00;;;;;;;18.00;100.00;100489.66;5135222;27;20173;-73
2021/09/11 02:21:13;;;;;;;8.23;7.57;;;;;;;18.02;100.00;100492.88;5135198;27;20192;-73
2021/09/11 02:23:38;;;;;;;8.37;7.67;;;;;;;18.02;100.00;100497.59;5135040;27;20252;-73
2021/09/11 02:26:04;;;;;;;9.07;8.27;;;;;;;18.01;100.00;100482.16;5135184;27;20230;-73
2021/09/11 02:28:29;;;;;;;8.20;7.53;;;;;;;18.02;100.00;100492.88;5135225;27;20553;-74
2021/09/11 02:30:54;;;;;;;8.70;7.77;;;;;;;18.01;100.00;100496.78;5135017;27;20497;-74
2021/09/11 02:33:20;;;;;;;9.67;8.87;;;;;;;18.02;100.00;100483.78;5134943;27;20224;-73
2021/09/11 02:35:45;;;;;;;8.63;8.00;;;;;;;17.97;100.00;100492.34;5135139;27;20528;-73
2021/09/11 02:38:10;;;;;;;8.07;7.47;;;;;;;17.97;100.00;100482.09;5134979;27;20632;-74
2021/09/11 02:40:36;;;;;;;8.80;8.10;;;;;;;17.97;100.00;100495.13;5134870;27;20169;-73
2021/09/11 02:43:01;;;;;;;8.83;8.00;;;;;;;17.95;100.00;100487.19;5134842;27;20578;-73
2021/09/11 02:45:26;;;;;;;8.07;7.37;;;;;;;17.95;100.00;100487.19;5134480;27;20259;-73
2021/09/11 02:47:51;;;;;;;9.03;8.33;;;;;;;17.94;100.00;100487.53;5134814;27;20160;-72
2021/09/11 02:50:17;;;;;;;8.53;7.67;;;;;;;17.94;100.00;100493.06;5134714;27;20596;-73
2021/09/11 02:52:42;;;;;;;8.90;8.07;;;;;;;17.91;100.00;100483.53;5134764;27;20241;-73
2021/09/11 02:55:08;;;;;;;10.67;9.30;;;;;;;17.89;100.00;100483.06;5134412;27;20214;-74
2021/09/11 02:57:33;;;;;;;10.20;9.30;;;;;;;17.87;100.00;100468.81;5134597;27;20615;-74
2021/09/11 02:59:59;;;;;;;9.20;8.40;;;;;;;17.83;100.00;100482.56;5134744;27;20619;-74
2021/09/11 03:02:24;;;;;;;11.90;9.27;;;;;;;17.83;100.00;100484.53;5134437;27;20173;-74
2021/09/11 03:04:49;;;;;;;10.33;9.33;;;;;;;17.81;100.00;100478.56;5133733;27;20249;-74
2021/09/11 03:07:15;;;;;;;11.40;9.83;;;;;;;17.80;100.00;100485.25;5134531;27;20177;-73
2021/09/11 03:09:40;;;;;;;10.73;9.83;;;;;;;17.81;100.00;100486.84;5134344;27;20173;-73
2021/09/11 03:12:06;;;;;;;11.60;10.50;;;;;;;17.81;100.00;100487.66;5134193;27;20183;-73
2021/09/11 03:14:31;;;;;;;11.97;10.97;;;;;;;17.84;100.00;100486.13;5133875;27;20204;-73
2021/09/11 03:16:57;;;;;;;11.33;10.33;;;;;;;17.88;100.00;100483.44;5134409;27;20582;-74
2021/09/11 03:19:22;;;;;;;11.10;10.03;;;;;;;17.89;100.00;100483.06;5134310;27;20164;-74
2021/09/11 03:21:47;;;;;;;11.33;10.27;;;;;;;17.90;100.00;100490.22;5134243;27;20191;-73
2021/09/11 03:24:13;;;;;;;10.53;9.53;;;;;;;17.90;100.00;100486.66;5134130;27;20478;-74
2021/09/11 03:26:38;;;;;;;10.40;9.33;;;;;;;17.88;100.00;100486.22;5134505;27;20247;-74
2021/09/11 03:29:03;;;;;;;10.17;9.27;;;;;;;17.86;100.00;100481.03;5124412;27;20264;-73
2021/09/11 03:31:29;;;;;;;11.83;9.30;;;;;;;17.85;100.00;100493.25;5124128;27;20218;-74
2021/09/11 03:33:54;;;;;;;10.57;9.50;;;;;;;17.84;100.00;100494.44;5113133;28;20205;-74
2021/09/11 03:36:20;;;;;;;10.13;9.23;;;;;;;17.82;100.00;100492.03;5113653;28;20183;-74
2021/09/11 03:38:45;;;;;;;10.20;9.27;;;;;;;17.84;100.00;100500.75;5134794;27;20184;-73
2021/09/11 03:41:11;;;;;;;10.40;9.40;;;;;;;17.85;100.00;100512.59;5141641;27;20177;-74
2021/09/11 03:43:36;;;;;;;11.20;10.07;;;;;;;17.85;100.00;100520.91;5134198;27;20173;-74
2021/09/11 03:46:02;;;;;;;9.93;8.93;;;;;;;17.80;100.00;100518.41;5134600;27;20624;-74
2021/09/11 03:48:27;;;;;;;10.33;9.33;;;;;;;17.86;100.00;100489.34;5133766;27;20251;-74
2021/09/11 03:50:53;;;;;;;9.50;8.70;;;;;;;17.84;100.00;100481.41;5123639;27;20187;-74
2021/09/11 03:53:18;;;;;;;8.57;7.80;;;;;;;17.82;100.00;100500.31;5133584;27;20193;-73
2021/09/11 03:55:43;;;;;;;8.83;7.83;;;;;;;17.82;100.00;100508.59;5133612;27;20551;-74
2021/09/11 03:58:09;;;;;;;8.20;7.50;;;;;;;17.69;100.00;100504.34;5133405;27;20176;-74
2021/09/11 04:00:36;;;;;;;8.50;7.87;;;;;;;17.79;100.00;100517.63;5133253;27;20179;-74
2021/09/11 04:03:01;;;;;;;8.13;7.43;;;;;;;17.74;100.00;100512.34;5133295;27;20662;-74
2021/09/11 04:05:26;;;;;;;7.63;6.93;;;;;;;17.79;100.00;100520.38;5132821;27;20188;-73
2021/09/11 04:07:52;;;;;;;8.40;7.70;;;;;;;17.79;100.00;100527.84;5133200;27;20177;-73
2021/09/11 04:10:17;;;;;;;7.30;6.70;;;;;;;17.77;100.00;100519.13;5133096;27;20180;-74
2021/09/11 04:12:43;;;;;;;8.67;7.87;;;;;;;17.72;100.00;100535.97;5114958;27;20176;-73
2021/09/11 04:15:09;;;;;;;8.03;7.30;;;;;;;17.76;100.00;100532.13;5132436;27;20204;-74
2021/09/11 04:17:34;;;;;;;9.27;7.13;;;;;;;17.77;100.00;100525.44;5114954;27;20656;-73
2021/09/11 04:19:59;;;;;;;8.67;7.90;;;;;;;17.74;100.00;100525.38;5132846;27;20210;-74
2021/09/11 04:22:25;;;;;;;8.03;7.20;;;;;;;17.68;100.00;100530.38;5132694;27;20179;-73
2021/09/11 04:24:50;;;;;;;7.33;6.50;;;;;;;17.66;100.00;100548.44;5132460;27;20180;-73
2021/09/11 04:27:16;;;;;;;7.53;6.83;;;;;;;17.62;100.00;100553.84;5133129;27;20178;-73
2021/09/11 04:29:41;;;;;;;7.33;6.73;;;;;;;17.70;100.00;100555.69;5132675;27;20173;-74
2021/09/11 04:32:06;;;;;;;7.93;7.10;;;;;;;17.78;100.00;100568.50;5132648;27;20180;-74
2021/09/11 04:34:32;;;;;;;7.33;6.63;;;;;;;17.77;100.00;100566.09;5132517;27;20281;-74
2021/09/11 04:36:57;;;;;;;7.10;6.50;;;;;;;17.77;100.00;100560.56;5132557;27;20586;-74
2021/09/11 04:39:23;;;;;;;7.27;6.57;;;;;;;17.81;100.00;100569.78;5132566;27;20176;-74
2021/09/11 04:41:48;;;;;;;7.43;6.83;;;;;;;17.88;100.00;100552.53;5132577;27;20172;-74
2021/09/11 04:44:13;;;;;;;6.37;5.87;;;;;;;17.90;100.00;100550.22;5132337;27;20184;-74
2021/09/11 04:46:39;;;;;;;7.03;5.87;;;;;;;17.85;100.00;100548.53;5113874;27;20184;-74
2021/09/11 04:49:04;;;;;;;6.50;6.00;;;;;;;17.89;100.00;100518.22;5132389;27;20576;-74
2021/09/11 04:51:29;;;;;;;7.40;6.00;;;;;;;17.88;100.00;100524.91;5132085;27;20681;-73
2021/09/11 04:53:54;;;;;;;6.63;6.00;;;;;;;17.88;100.00;100520.19;5131610;27;20292;-73
2021/09/11 04:56:20;;;;;;;6.83;6.23;;;;;;;17.82;100.00;100521.63;5132495;27;20184;-74
2021/09/11 04:58:45;;;;;;;6.53;5.90;;;;;;;17.80;100.00;100522.00;5132724;27;20263;-74
2021/09/11 05:01:11;;;;;;;6.30;5.67;;;;;;;17.80;100.00;100519.22;5132205;27;20537;-74
2021/09/11 05:03:36;;;;;;;5.80;5.30;;;;;;;17.77;100.00;100521.88;5131793;27;20560;-73
2021/09/11 05:06:01;;;;;;;5.43;4.93;;;;;;;17.73;100.00;100521.78;5132243;27;20172;-73
2021/09/11 05:08:27;;;;;;;8.33;4.40;;;;;;;17.70;100.00;100519.75;5131846;27;20176;-74
2021/09/11 05:10:52;;;;;;;8.27;6.07;;;;;;;17.69;100.00;100511.81;5131886;27;20700;-74
2021/09/11 05:13:18;;;;;;;5.90;5.40;;;;;;;17.65;100.00;100522.78;5131842;27;20663;-74
2021/09/11 05:15:43;;;;;;;5.37;4.87;;;;;;;17.70;100.00;100513.44;5131523;27;20172;-74
2021/09/11 05:18:09;;;;;;;6.17;5.07;;;;;;;17.67;100.00;100514.13;5131846;27;20540;-73
2021/09/11 05:20:34;;;;;;;7.23;4.77;;;;;;;17.66;100.00;100532.66;5131612;27;20655;-73
2021/09/11 05:22:59;;;;;;;5.80;5.27;;;;;;;17.62;100.00;100517.13;5131832;27;20171;-73
2021/09/11 05:25:25;;;;;;;6.00;4.73;;;;;;;17.64;100.00;100529.44;5131757;27;20688;-74
2021/09/11 05:27:50;;;;;;;6.47;4.63;;;;;;;17.63;100.00;100532.56;5131621;27;20164;-73
2021/09/11 05:30:18;;;;;;;5.40;4.90;;;;;;;17.62;100.00;100526.22;5131548;27;20169;-73
2021/09/11 05:32:43;;;;;;;4.77;4.37;;;;;;;17.64;100.00;100531.38;5131957;27;20167;-73
2021/09/11 05:35:09;;;;;;;4.70;4.30;;;;;;;17.64;100.00;100531.38;5131152;27;20205;-73
2021/09/11 05:37:34;;;;;;;4.93;4.43;;;;;;;17.69;100.00;100533.94;5131403;27;20176;-73
2021/09/11 05:39:59;;;;;;;4.63;3.93;;;;;;;17.70;100.00;100533.56;5131442;27;20190;-73
2021/09/11 05:42:25;;;;;;;5.67;3.50;;;;;;;17.68;100.00;100533.13;5131480;27;20203;-73
2021/09/11 05:44:50;;;;;;;5.70;3.27;;;;;;;17.70;100.00;100543.81;5131157;27;20168;-74
2021/09/11 05:47:16;;;;;;;4.37;3.77;;;;;;;17.71;100.00;100545.44;5131884;27;20176;-73
2021/09/11 05:49:41;;;;;;;3.63;3.33;;;;;;;17.73;100.00;100552.19;5131603;27;20164;-73
2021/09/11 05:52:06;;;;;;;4.03;3.50;;;;;;;17.78;100.00;100545.59;5121016;28;20198;-74
2021/09/11 05:54:32;;;;;;;3.20;2.87;;;;;;;17.83;100.00;100553.63;5131051;27;20303;-74
2021/09/11 05:56:57;;;;;;;4.67;3.53;;;;;;;17.88;100.00;100547.81;5131273;27;20169;-74
2021/09/11 05:59:22;;;;;;;3.57;3.37;;;;;;;17.91;100.00;100555.38;5131320;28;20255;-74
2021/09/11 06:01:48;;;;;;;5.33;3.80;;;;;;;17.98;100.00;100550.03;5131228;28;20256;-74
2021/09/11 06:04:13;;;;;;;3.50;3.20;;;;;;;18.00;100.00;100558.78;5130980;28;20212;-74
2021/09/11 06:06:38;;;;;;;3.40;3.10;;;;;;;18.02;100.00;100559.22;5131051;27;20259;-74
2021/09/11 06:09:04;;;;;;;3.27;2.97;;;;;;;18.12;100.00;100560.66;5131213;28;20646;-74
2021/09/11 06:11:29;;;;;;;4.87;2.60;;;;;;;18.13;100.00;100560.28;5131145;28;20169;-73
2021/09/11 06:13:54;;;;;;;2.67;2.47;;;;;;;18.16;100.00;100555.19;5131053;27;20282;-73
2021/09/11 06:16:20;;;;;;;2.90;2.70;;;;;;;18.22;100.00;100559.25;5131166;28;20668;-74
2021/09/11 06:18:46;;;;;;;3.60;3.30;;;;;;;18.20;100.00;100554.09;5131087;28;20173;-72
2021/09/11 06:21:11;;;;;;;3.73;3.43;;;;;;;18.23;100.00;100556.16;5130975;28;20169;-73
2021/09/11 06:23:36;;;;;;;4.60;4.23;;;;;;;18.28;100.00;100555.06;5131169;28;20218;-73
2021/09/11 06:26:02;;;;;;;4.37;4.00;;;;;;;18.32;100.00;100559.53;5131091;28;20674;-74
2021/09/11 06:28:27;;;;;;;3.60;3.30;;;;;;;18.29;100.00;100560.25;5131135;28;20632;-74
2021/09/11 06:30:54;;;;;;;4.33;3.93;;;;;;;18.26;100.00;100565.72;5131131;28;20165;-74
2021/09/11 06:33:19;;;;;;;4.07;3.73;;;;;;;18.29;100.00;100563.00;5130973;28;20738;-74
2021/09/11 06:35:45;;;;;;;6.87;5.03;;;;;;;18.29;100.00;100556.69;5130870;28;20255;-76
2021/09/11 06:38:10;;;;;;;4.67;4.27;;;;;;;18.30;100.00;100558.28;5131094;27;20199;-75
2021/09/11 06:40:36;;;;;;;3.40;1.70;;;;;;;18.31;100.00;100555.16;5131395;27;20181;-75
2021/09/11 06:43:01;;;;;;;4.67;4.27;;;;;;;18.30;100.00;100564.63;5134715;27;20168;-75
2021/09/11 06:45:26;;;;;;;3.67;3.43;;;;;;;18.33;100.00;100554.78;5134550;27;20202;-74
2021/09/11 06:47:52;;;;;;;4.90;4.50;;;;;;;18.34;100.00;100553.63;5134755;27;20200;-75
2021/09/11 06:50:17;;;;;;;5.17;4.70;;;;;;;18.38;100.00;100558.09;5134612;27;20628;-75
2021/09/11 06:52:42;;;;;;;4.80;4.40;;;;;;;18.38;100.00;100552.56;5132132;27;20189;-74
2021/09/11 06:55:09;;;;;;;4.43;4.03;;;;;;;18.43;100.00;100557.81;5133061;27;20647;-75
2021/09/11 06:57:34;;;;;;;5.33;4.83;;;;;;;18.49;100.00;100560.28;5134550;27;20259;-74
2021/09/11 07:00:00;;;;;;;4.83;4.43;;;;;;;18.56;100.00;100555.72;5134738;27;20585;-76
2021/09/11 07:02:25;;;;;;;4.27;3.97;;;;;;;18.64;100.00;100554.72;5116210;27;20184;-74
2021/09/11 07:04:50;;;;;;;4.40;4.00;;;;;;;18.77;100.00;100557.34;5134429;27;20214;-74
2021/09/11 07:07:16;;;;;;;7.27;6.33;;;;;;;18.79;100.00;100561.34;5134527;27;20183;-75
2021/09/11 07:09:41;;;;;;;5.37;4.93;;;;;;;18.88;100.00;100563.91;5134373;27;20177;-74
2021/09/11 07:12:06;;;;;;;6.17;5.67;;;;;;;18.96;100.00;100577.53;5131281;27;20188;-75
2021/09/11 07:14:32;;;;;;;6.23;4.77;;;;;;;18.94;100.00;100574.31;5133983;27;20200;-74
2021/09/11 07:16:57;;;;;;;4.90;4.50;;;;;;;18.89;100.00;100573.81;5134256;27;20674;-75
2021/09/11 07:19:23;;;;;;;4.80;4.33;;;;;;;18.88;100.00;100578.56;5134445;27;20259;-74
2021/09/11 07:21:48;;;;;;;5.00;4.60;;;;;;;18.89;100.00;100574.63;5134209;27;20671;-73
2021/09/11 07:24:14;;;;;;;3.40;3.10;;;;;;;18.91;100.00;100580.59;5134252;27;20183;-75
2021/09/11 07:26:39;;;;;;;9.10;6.40;;;;;;;18.89;100.00;100574.63;5134174;27;20171;-74
2021/09/11 07:29:04;;;;;;;6.00;5.50;;;;;;;18.92;100.00;100579.41;5133858;27;20207;-75
2021/09/11 07:31:30;;;;;;;4.77;4.37;;;;;;;18.88;100.00;100586.84;5133970;27;20165;-74
2021/09/11 07:33:55;;;;;;;6.87;6.23;;;;;;;18.89;100.00;100576.59;5133719;27;20200;-74
2021/09/11 07:36:21;;;;;;;6.40;5.87;;;;;;;18.95;100.00;100581.47;5134011;27;20175;-74
2021/09/11 07:38:46;;;;;;;10.03;5.43;;;;;;;19.02;100.00;100581.63;5133837;27;20199;-75
2021/09/11 07:41:11;;;;;;;4.93;4.53;;;;;;;19.07;100.00;100590.78;5133808;27;20165;-74
2021/09/11 07:43:37;;;;;;;7.67;6.97;;;;;;;19.19;100.00;100585.09;5133662;27;20180;-74
2021/09/11 07:46:02;;;;;;;3.37;3.10;;;;;;;19.40;100.00;100593.81;5133855;27;20168;-75
2021/09/11 07:48:28;;;;;;;3.90;3.43;;;;;;;19.41;100.00;100586.31;5133714;27;20176;-74
2021/09/11 07:50:53;;;;;;;4.63;4.23;;;;;;;19.44;100.00;100594.69;5133751;27;20195;-74
2021/09/11 07:53:19;;;;;;;5.67;5.17;;;;;;;19.43;100.00;100598.63;5132221;27;20597;-74
2021/09/11 07:55:45;;;;;;;6.87;6.27;;;;;;;19.43;100.00;100603.38;5133502;27;20298;-75
2021/09/11 07:58:10;;;;;;;6.80;6.20;;;;;;;19.47;100.00;100605.03;5133735;27;20183;-75
2021/09/11 08:00:36;;;;;;;6.00;5.40;;;;;;;19.45;100.00;100596.28;5133422;27;20179;-75
2021/09/11 08:03:01;;;;;;;8.37;7.47;;;;;;;19.51;100.00;100603.13;5133484;27;20169;-74
2021/09/11 08:05:27;;;;;;;6.23;5.67;;;;;;;19.64;100.00;100605.75;5133036;27;20192;-75
2021/09/11 08:07:53;;;;;;;9.37;7.53;;;;;;;19.70;100.00;100607.06;5133521;27;20180;-74
2021/09/11 08:10:19;;;;;;;8.70;7.93;;;;;;;19.73;100.00;100606.31;5133306;27;20229;-76
2021/09/11 08:12:46;;;;;;;9.70;8.80;;;;;;;19.74;100.00;100608.72;5133095;27;20550;-74
2021/09/11 08:15:12;;;;;;;10.43;8.93;;;;;;;19.73;100.00;100609.09;5133117;27;20950;-74
2021/09/11 08:17:38;;;;;;;8.37;7.47;;;;;;;19.70;100.00;100610.63;5133194;27;20228;-75
2021/09/11 08:20:05;;;;;;;7.23;6.53;;;;;;;19.67;100.00;100611.34;5133533;27;20593;-75
2021/09/11 08:22:30;;;;;;;6.67;6.10;;;;;;;19.62;100.00;100600.59;5114643;27;20191;-78
2021/09/11 08:24:56;;;;;;;9.67;8.77;;;;;;;19.69;100.00;100606.25;5132810;27;20168;-77
2021/09/11 08:27:23;;;;;;;9.87;7.00;;;;;;;19.82;100.00;100604.91;5133004;27;20177;-75
2021/09/11 08:29:48;;;;;;;8.53;7.70;;;;;;;19.82;100.00;100596.59;5132882;27;20199;-77
2021/09/11 08:32:13;;;;;;;6.67;6.07;;;;;;;19.91;100.00;100602.69;5133060;27;20180;-76
2021/09/11 08:34:39;;;;;;;6.40;5.87;;;;;;;19.87;100.00;100609.34;5132692;27;20288;-75
2021/09/11 08:37:04;;;;;;;8.37;7.60;;;;;;;19.92;100.00;100606.25;5132753;27;20605;-75
2021/09/11 08:39:29;;;;;;;9.27;8.30;;;;;;;19.96;100.00;100609.88;5132691;27;20199;-76
2021/09/11 08:41:56;;;;;;;11.07;8.17;;;;;;;20.20;100.00;100615.03;5132510;27;20172;-75
2021/09/11 08:44:23;;;;;;;9.17;8.27;;;;;;;20.35;100.00;100624.38;5132386;27;20173;-75
2021/09/11 08:46:49;;;;;;;8.77;7.93;;;;;;;20.35;100.00;100615.25;5132526;27;20173;-76
2021/09/11 08:49:16;;;;;;;8.73;7.93;;;;;;;20.25;100.00;100580.63;5132565;27;20169;-75
2021/09/11 08:51:41;;;;;;;4.20;3.77;;;;;;;20.06;100.00;100614.81;5132493;27;20173;-74
2021/09/11 08:54:07;;;;;;;8.67;7.87;;;;;;;19.94;100.00;100589.22;5132782;27;20263;-76
2021/09/11 08:56:39;;;;;;;9.60;8.60;;;;;;;19.85;100.00;100587.53;5132395;27;20199;-74
2021/09/11 08:59:08;;;;;;;6.70;6.10;;;;;;;19.81;100.00;100594.97;5132214;27;20587;-73
2021/09/11 09:01:33;;;;;;;8.73;7.93;;;;;;;19.84;100.00;100593.44;5132048;27;20477;-74
2021/09/11 09:03:59;;;;;;;8.73;7.90;;;;;;;19.87;100.00;100596.28;5131541;27;20892;-73
2021/09/11 09:06:28;;;;;;;7.23;6.53;;;;;;;19.95;100.00;100511.22;5132180;27;20168;-74
2021/09/11 09:09:04;;;;;;;9.30;8.50;;;;;;;20.11;100.00;100531.28;5132148;27;20538;-75
2021/09/11 09:11:31;;;;;;;10.40;9.30;;;;;;;20.26;100.00;100523.16;5132021;27;20168;-73
2021/09/11 09:14:00;;;;;;;8.30;7.50;;;;;;;20.35;100.00;100513.38;5131761;27;20249;-73
2021/09/11 09:16:32;;;;;;;10.93;9.83;;;;;;;20.40;100.00;100501.97;5131939;27;20177;-74
2021/09/11 09:19:00;;;;;;;13.23;8.60;;;;;;;20.26;100.00;100496.22;5131930;27;20158;-73
2021/09/11 09:21:29;;;;;;;9.80;8.90;;;;;;;20.15;100.00;100498.84;5113471;27;20176;-73
2021/09/11 09:24:05;;;;;;;7.60;6.90;;;;;;;20.06;100.00;100505.81;5113428;27;20180;-74
2021/09/11 09:26:47;;;;;;;10.17;8.23;;;;;;;19.97;100.00;100500.56;5122689;27;20410;-74
2021/09/11 09:29:15;;;;;;;11.70;9.57;;;;;;;19.94;100.00;100511.59;5116463;27;20176;-74
2021/09/11 09:31:42;;;;;;;12.60;11.03;;;;;;;19.99;100.00;100506.53;5132983;27;20176;-72
2021/09/11 09:34:07;;;;;;;9.53;7.80;;;;;;;19.98;100.00;100507.72;5131981;27;20204;-73
2021/09/11 09:36:40;;;;;;;6.27;5.67;;;;;;;20.04;100.00;100508.19;5131899;27;20178;-73
2021/09/11 09:39:10;;;;;;;10.37;9.37;;;;;;;20.05;100.00;100505.03;5131876;27;20168;-73
2021/09/11 09:41:46;;;;;;;6.73;6.13;;;;;;;20.04;100.00;100500.66;5131851;27;20390;-73
2021/09/11 09:44:14;;;;;;;5.97;4.33;;;;;;;19.97;100.00;100500.56;5131626;27;20228;-73
2021/09/11 09:46:41;;;;;;;9.70;8.80;;;;;;;19.93;100.00;100488.59;5131697;27;20173;-73
2021/09/11 09:49:07;;;;;;;10.43;9.43;;;;;;;19.97;100.00;100488.66;5131758;28;20168;-73
2021/09/11 09:51:34;;;;;;;10.83;9.83;;;;;;;20.03;100.00;100492.72;5131699;28;20264;-74
2021/09/11 09:54:00;;;;;;;10.03;7.33;;;;;;;20.12;100.00;100485.72;5131625;28;20556;-73
2021/09/11 09:56:28;;;;;;;9.70;8.80;;;;;;;20.23;100.00;100485.84;5131850;28;20168;-73
2021/09/11 09:58:54;;;;;;;13.57;10.03;;;;;;;20.46;100.00;100494.13;5125106;28;20189;-73
2021/09/11 10:01:21;;;;;;;11.87;10.67;;;;;;;20.71;100.00;100494.44;5124876;28;20230;-73
2021/09/11 10:03:47;;;;;;;8.00;7.30;;;;;;;20.92;100.00;100496.66;5120490;28;20203;-73
2021/09/11 10:06:25;;;;;;;9.83;8.83;;;;;;;20.83;99.54;100491.41;5131625;28;20203;-73
2021/09/11 10:08:54;;;;;;;9.27;8.43;;;;;;;20.82;100.00;100486.22;5131681;28;20170;-74
2021/09/11 10:11:20;;;;;;;10.50;9.50;;;;;;;20.83;100.00;100485.84;5131522;28;20181;-73
2021/09/11 10:14:13;;;;;;;8.80;7.93;;;;;;;20.84;100.00;100486.66;5131092;28;20203;-73
2021/09/11 10:16:41;;;;;;;7.23;6.63;;;;;;;20.88;100.00;100481.94;5121400;27;20196;-73
2021/09/11 10:19:21;;;;;;;9.30;8.40;;;;;;;20.83;98.07;100480.31;5135500;27;20180;-73
2021/09/11 10:22:04;;;;;;;12.13;8.23;;;;;;;20.90;99.72;100490.69;5135433;27;20191;-73
2021/09/11 10:24:31;;;;;;;8.70;7.80;;;;;;;21.22;98.36;100497.34;5135279;27;20169;-73
2021/09/11 10:27:19;;;;;;;9.50;8.60;;;;;;;21.35;94.74;100479.25;5135443;27;20642;-73
2021/09/11 10:29:44;;;;;;;9.20;8.30;;;;;;;21.43;95.34;100488.47;5135290;27;20177;-73
2021/09/11 10:32:21;;;;;;;8.63;7.93;;;;;;;21.42;93.13;100480.50;5135259;27;20169;-73
2021/09/11 10:35:05;;;;;;;7.50;6.83;;;;;;;21.21;90.12;100472.72;5135035;27;20204;-73
2021/09/11 10:37:39;;;;;;;8.97;7.80;;;;;;;21.14;89.81;100478.25;5135185;27;20184;-73
2021/09/11 10:40:21;;;;;;;6.93;6.23;;;;;;;21.10;90.26;100478.19;5135077;27;20823;-73
2021/09/11 10:42:58;;;;;;;8.33;6.73;;;;;;;21.05;91.44;100484.88;5135151;27;20172;-72
2021/09/11 10:45:42;;;;;;;9.30;8.23;;;;;;;20.93;91.31;100495.47;5134471;27;20172;-73
2021/09/11 10:48:31;;;;;;;7.87;7.17;;;;;;;20.87;90.20;100478.34;5134785;27;20172;-73
2021/09/11 10:50:57;;;;;;;8.70;7.90;;;;;;;20.94;92.28;100483.97;5134731;27;20165;-73
2021/09/11 10:53:23;;;;;;;9.17;8.47;;;;;;;21.01;91.59;100491.59;5134746;27;20172;-79
2021/09/11 10:55:49;;;;;;;10.60;9.57;;;;;;;21.01;90.39;100489.63;5134239;27;20169;-74
2021/09/11 10:58:27;;;;;;;10.30;9.30;;;;;;;21.15;90.63;100480.63;5134576;27;20218;-75
2021/09/11 11:01:00;;;;;;;9.50;8.60;;;;;;;21.13;87.77;100477.44;5134414;27;20175;-75
2021/09/11 11:03:26;;;;;;;8.87;8.07;;;;;;;21.17;86.56;100480.25;5134382;27;20160;-75
2021/09/11 11:06:02;;;;;;;4.80;4.33;;;;;;;21.19;87.10;100477.88;5134498;27;20241;-74
2021/09/11 11:08:30;;;;;;;9.63;8.83;;;;;;;21.18;89.26;100482.63;5134418;27;20176;-75
2021/09/11 11:10:55;;;;;;;8.73;8.03;;;;;;;21.27;85.84;100480.38;5134253;27;20646;-75
2021/09/11 11:13:22;;;;;;;8.10;7.40;;;;;;;21.32;86.79;100473.66;5134153;27;20169;-75
2021/09/11 11:15:57;;;;;;;8.70;8.00;;;;;;;21.33;87.57;100491.94;5133727;27;20184;-75